sensor_id;sensor_type;location;lat;lon;timestamp;temperature;humidity
14737;DHT22;7459;53.590;10.062;2022-12-19T00:00:48;-1.90;99.90
14737;DHT22;7459;53.590;10.062;2022-12-19T00:03:14;-1.90;99.90
14737;DHT22;7459;53.590;10.062;2022-12-19T00:05:41;-1.90;99.90
14737;DHT22;7459;53.590;10.062;2022-12-19T00:08:14;-1.90;99.90
14737;DHT22;7459;53.590;10.062;2022-12-19T00:10:41;-1.90;99.90
14737;DHT22;7459;53.590;10.062;2022-12-19T00:13:07;-1.90;99.90
14737;DHT22;7459;53.590;10.062;2022-12-19T00:15:34;-2.00;99.90
14737;DHT22;7459;53.590;10.062;2022-12-19T00:18:00;-1.90;99.90
14737;DHT22;7459;53.590;10.062;2022-12-19T00:20:26;-1.90;99.90
14737;DHT22;7459;53.590;10.062;2022-12-19T00:22:51;-1.90;99.90
14737;DHT22;7459;53.590;10.062;2022-12-19T00:25:17;-1.90;99.90
14737;DHT22;7459;53.590;10.062;2022-12-19T00:27:42;-1.90;99.90
14737;DHT22;7459;53.590;10.062;2022-12-19T00:30:09;-1.90;99.90
14737;DHT22;7459;53.590;10.062;2022-12-19T00:32:36;-1.90;99.90
14737;DHT22;7459;53.590;10.062;2022-12-19T00:35:02;-1.90;99.90
14737;DHT22;7459;53.590;10.062;2022-12-19T00:37:27;-1.90;99.90
14737;DHT22;7459;53.590;10.062;2022-12-19T00:39:53;-1.90;99.90
14737;DHT22;7459;53.590;10.062;2022-12-19T00:42:19;-1.90;99.90
14737;DHT22;7459;53.590;10.062;2022-12-19T00:44:46;-1.90;99.90
14737;DHT22;7459;53.590;10.062;2022-12-19T00:47:11;-1.90;99.90
14737;DHT22;7459;53.590;10.062;2022-12-19T00:49:37;-1.90;99.90
14737;DHT22;7459;53.590;10.062;2022-12-19T00:52:03;-1.90;99.90
14737;DHT22;7459;53.590;10.062;2022-12-19T00:54:29;-1.90;99.90
14737;DHT22;7459;53.590;10.062;2022-12-19T00:56:54;-1.90;99.90
14737;DHT22;7459;53.590;10.062;2022-12-19T00:59:20;-1.90;99.90
14737;DHT22;7459;53.590;10.062;2022-12-19T01:01:46;-1.90;99.90
14737;DHT22;7459;53.590;10.062;2022-12-19T01:04:13;-1.90;99.90
14737;DHT22;7459;53.590;10.062;2022-12-19T01:06:40;-1.90;99.90
14737;DHT22;7459;53.590;10.062;2022-12-19T01:09:10;-1.90;99.90
14737;DHT22;7459;53.590;10.062;2022-12-19T01:11:36;-1.90;99.90
14737;DHT22;7459;53.590;10.062;2022-12-19T01:14:21;-1.90;99.90
14737;DHT22;7459;53.590;10.062;2022-12-19T01:16:47;-1.90;99.90
14737;DHT22;7459;53.590;10.062;2022-12-19T01:19:12;-1.90;99.90
14737;DHT22;7459;53.590;10.062;2022-12-19T01:21:38;-1.90;99.90
14737;DHT22;7459;53.590;10.062;2022-12-19T01:24:04;-1.90;99.90
14737;DHT22;7459;53.590;10.062;2022-12-19T01:26:30;-1.90;99.90
14737;DHT22;7459;53.590;10.062;2022-12-19T01:28:56;-1.90;99.90
14737;DHT22;7459;53.590;10.062;2022-12-19T01:31:21;-1.90;99.90
14737;DHT22;7459;53.590;10.062;2022-12-19T01:33:47;-1.80;99.90
14737;DHT22;7459;53.590;10.062;2022-12-19T01:36:13;-1.80;99.90
14737;DHT22;7459;53.590;10.062;2022-12-19T01:38:38;-1.90;99.90
14737;DHT22;7459;53.590;10.062;2022-12-19T01:41:04;-1.90;99.90
14737;DHT22;7459;53.590;10.062;2022-12-19T01:46:45;-1.80;99.90
14737;DHT22;7459;53.590;10.062;2022-12-19T01:49:33;-1.90;99.90
14737;DHT22;7459;53.590;10.062;2022-12-19T01:52:02;-1.90;99.90
14737;DHT22;7459;53.590;10.062;2022-12-19T01:54:35;-1.80;99.90
14737;DHT22;7459;53.590;10.062;2022-12-19T01:57:07;-1.90;99.90
14737;DHT22;7459;53.590;10.062;2022-12-19T01:59:42;-1.90;99.90
14737;DHT22;7459;53.590;10.062;2022-12-19T02:02:17;-1.80;99.90
14737;DHT22;7459;53.590;10.062;2022-12-19T02:04:47;-1.80;99.90
14737;DHT22;7459;53.590;10.062;2022-12-19T02:07:15;-1.80;99.90
14737;DHT22;7459;53.590;10.062;2022-12-19T02:09:44;-1.80;99.90
14737;DHT22;7459;53.590;10.062;2022-12-19T02:12:11;-1.80;99.90
14737;DHT22;7459;53.590;10.062;2022-12-19T02:14:37;-1.80;99.90
14737;DHT22;7459;53.590;10.062;2022-12-19T02:20:26;-1.80;99.90
14737;DHT22;7459;53.590;10.062;2022-12-19T02:34:46;-1.70;99.90
14737;DHT22;7459;53.590;10.062;2022-12-19T02:37:21;-1.70;99.90
14737;DHT22;7459;53.590;10.062;2022-12-19T02:42:59;-1.70;99.90
14737;DHT22;7459;53.590;10.062;2022-12-19T02:45:30;-1.70;99.90
14737;DHT22;7459;53.590;10.062;2022-12-19T02:48:00;-1.60;99.90
14737;DHT22;7459;53.590;10.062;2022-12-19T02:50:41;-1.60;99.90
14737;DHT22;7459;53.590;10.062;2022-12-19T02:53:10;-1.60;99.90
14737;DHT22;7459;53.590;10.062;2022-12-19T02:59:24;-1.60;99.90
14737;DHT22;7459;53.590;10.062;2022-12-19T03:02:13;-1.60;99.90
14737;DHT22;7459;53.590;10.062;2022-12-19T03:11:03;-1.60;99.90
14737;DHT22;7459;53.590;10.062;2022-12-19T03:16:10;-1.60;99.90
14737;DHT22;7459;53.590;10.062;2022-12-19T03:18:38;-1.50;99.90
14737;DHT22;7459;53.590;10.062;2022-12-19T03:23:49;-1.60;99.90
14737;DHT22;7459;53.590;10.062;2022-12-19T03:26:19;-1.60;99.90
14737;DHT22;7459;53.590;10.062;2022-12-19T03:28:53;-1.50;99.90
14737;DHT22;7459;53.590;10.062;2022-12-19T03:31:24;-1.50;99.90
14737;DHT22;7459;53.590;10.062;2022-12-19T03:33:56;-1.50;99.90
14737;DHT22;7459;53.590;10.062;2022-12-19T03:36:29;-1.50;99.90
14737;DHT22;7459;53.590;10.062;2022-12-19T03:38:56;-1.50;99.90
14737;DHT22;7459;53.590;10.062;2022-12-19T03:41:25;-1.50;99.90
14737;DHT22;7459;53.590;10.062;2022-12-19T03:44:11;-1.50;99.90
14737;DHT22;7459;53.590;10.062;2022-12-19T03:46:44;-1.50;99.90
14737;DHT22;7459;53.590;10.062;2022-12-19T03:49:16;-1.50;99.90
14737;DHT22;7459;53.590;10.062;2022-12-19T03:54:53;-1.40;99.90
14737;DHT22;7459;53.590;10.062;2022-12-19T03:57:34;-1.40;99.90
14737;DHT22;7459;53.590;10.062;2022-12-19T04:00:07;-1.40;99.90
14737;DHT22;7459;53.590;10.062;2022-12-19T04:02:37;-1.40;99.90
14737;DHT22;7459;53.590;10.062;2022-12-19T04:05:28;-1.40;99.90
14737;DHT22;7459;53.590;10.062;2022-12-19T04:07:58;-1.40;99.90
14737;DHT22;7459;53.590;10.062;2022-12-19T04:10:27;-1.40;99.90
14737;DHT22;7459;53.590;10.062;2022-12-19T04:13:02;-1.40;99.90
14737;DHT22;7459;53.590;10.062;2022-12-19T04:18:11;-1.30;99.90
14737;DHT22;7459;53.590;10.062;2022-12-19T04:20:41;-1.30;99.90
14737;DHT22;7459;53.590;10.062;2022-12-19T04:23:24;-1.30;99.90
14737;DHT22;7459;53.590;10.062;2022-12-19T04:25:57;-1.20;99.90
14737;DHT22;7459;53.590;10.062;2022-12-19T04:28:33;-1.20;99.90
14737;DHT22;7459;53.590;10.062;2022-12-19T04:31:03;-1.20;99.90
14737;DHT22;7459;53.590;10.062;2022-12-19T04:33:29;-1.20;99.90
14737;DHT22;7459;53.590;10.062;2022-12-19T04:35:55;-1.20;99.90
14737;DHT22;7459;53.590;10.062;2022-12-19T04:38:21;-1.10;99.90
14737;DHT22;7459;53.590;10.062;2022-12-19T04:40:47;-1.20;99.90
14737;DHT22;7459;53.590;10.062;2022-12-19T04:43:12;-1.10;99.90
14737;DHT22;7459;53.590;10.062;2022-12-19T04:45:39;-1.10;99.90
14737;DHT22;7459;53.590;10.062;2022-12-19T04:48:06;-1.10;99.90
14737;DHT22;7459;53.590;10.062;2022-12-19T04:50:32;-1.10;99.90
14737;DHT22;7459;53.590;10.062;2022-12-19T04:52:59;-1.10;99.90
14737;DHT22;7459;53.590;10.062;2022-12-19T04:55:25;-1.10;99.90
14737;DHT22;7459;53.590;10.062;2022-12-19T04:57:51;-1.10;99.90
14737;DHT22;7459;53.590;10.062;2022-12-19T05:00:17;-1.10;99.90
14737;DHT22;7459;53.590;10.062;2022-12-19T05:02:43;-1.10;99.90
14737;DHT22;7459;53.590;10.062;2022-12-19T05:05:09;-1.10;99.90
14737;DHT22;7459;53.590;10.062;2022-12-19T05:07:35;-1.10;99.90
14737;DHT22;7459;53.590;10.062;2022-12-19T05:10:01;-1.10;99.90
14737;DHT22;7459;53.590;10.062;2022-12-19T05:12:29;-1.00;99.90
14737;DHT22;7459;53.590;10.062;2022-12-19T05:14:55;-1.00;99.90
14737;DHT22;7459;53.590;10.062;2022-12-19T05:17:21;-1.10;99.90
14737;DHT22;7459;53.590;10.062;2022-12-19T05:19:46;-1.00;99.90
14737;DHT22;7459;53.590;10.062;2022-12-19T05:22:12;-1.00;99.90
14737;DHT22;7459;53.590;10.062;2022-12-19T05:24:38;-1.00;99.90
14737;DHT22;7459;53.590;10.062;2022-12-19T05:27:03;-1.00;99.90
14737;DHT22;7459;53.590;10.062;2022-12-19T05:29:29;-1.00;99.90
14737;DHT22;7459;53.590;10.062;2022-12-19T05:31:55;-1.00;99.90
14737;DHT22;7459;53.590;10.062;2022-12-19T05:34:20;-1.00;99.90
14737;DHT22;7459;53.590;10.062;2022-12-19T05:36:48;-0.90;99.90
14737;DHT22;7459;53.590;10.062;2022-12-19T05:39:13;-0.90;99.90
14737;DHT22;7459;53.590;10.062;2022-12-19T05:41:39;-0.90;99.90
14737;DHT22;7459;53.590;10.062;2022-12-19T05:44:05;-0.90;99.90
14737;DHT22;7459;53.590;10.062;2022-12-19T05:46:30;-0.90;99.90
14737;DHT22;7459;53.590;10.062;2022-12-19T05:48:56;-0.90;99.90
14737;DHT22;7459;53.590;10.062;2022-12-19T05:51:22;-0.90;99.90
14737;DHT22;7459;53.590;10.062;2022-12-19T05:53:48;-0.80;99.90
14737;DHT22;7459;53.590;10.062;2022-12-19T05:56:16;-0.80;99.90
14737;DHT22;7459;53.590;10.062;2022-12-19T05:58:44;-0.80;99.90
14737;DHT22;7459;53.590;10.062;2022-12-19T06:01:17;-0.80;99.90
14737;DHT22;7459;53.590;10.062;2022-12-19T06:03:44;-0.80;99.90
14737;DHT22;7459;53.590;10.062;2022-12-19T06:06:18;-0.80;99.90
14737;DHT22;7459;53.590;10.062;2022-12-19T06:08:44;-0.70;99.90
14737;DHT22;7459;53.590;10.062;2022-12-19T06:11:11;-0.60;99.90
14737;DHT22;7459;53.590;10.062;2022-12-19T06:13:38;-0.60;99.90
14737;DHT22;7459;53.590;10.062;2022-12-19T06:16:07;-0.60;99.90
14737;DHT22;7459;53.590;10.062;2022-12-19T06:18:35;-0.60;99.90
14737;DHT22;7459;53.590;10.062;2022-12-19T06:21:03;-0.60;99.90
14737;DHT22;7459;53.590;10.062;2022-12-19T06:23:33;-0.50;99.90
14737;DHT22;7459;53.590;10.062;2022-12-19T06:26:01;-0.50;99.90
14737;DHT22;7459;53.590;10.062;2022-12-19T06:28:28;-0.50;99.90
14737;DHT22;7459;53.590;10.062;2022-12-19T06:30:55;-0.50;99.90
14737;DHT22;7459;53.590;10.062;2022-12-19T06:33:23;-0.50;99.90
14737;DHT22;7459;53.590;10.062;2022-12-19T06:36:38;-0.40;99.90
14737;DHT22;7459;53.590;10.062;2022-12-19T06:38:47;-0.20;99.90
14737;DHT22;7459;53.590;10.062;2022-12-19T06:41:13;-0.20;99.90
14737;DHT22;7459;53.590;10.062;2022-12-19T06:43:59;-0.10;99.90
14737;DHT22;7459;53.590;10.062;2022-12-19T06:46:25;-0.10;99.90
14737;DHT22;7459;53.590;10.062;2022-12-19T06:48:50;-0.10;99.90
14737;DHT22;7459;53.590;10.062;2022-12-19T06:51:17;0.00;99.90
14737;DHT22;7459;53.590;10.062;2022-12-19T06:53:43;0.10;99.90
14737;DHT22;7459;53.590;10.062;2022-12-19T06:56:11;0.10;99.90
14737;DHT22;7459;53.590;10.062;2022-12-19T06:58:38;0.20;99.90
14737;DHT22;7459;53.590;10.062;2022-12-19T07:01:04;0.20;99.90
14737;DHT22;7459;53.590;10.062;2022-12-19T07:03:37;0.20;99.90
14737;DHT22;7459;53.590;10.062;2022-12-19T07:06:05;0.10;99.90
14737;DHT22;7459;53.590;10.062;2022-12-19T07:08:31;0.10;99.90
14737;DHT22;7459;53.590;10.062;2022-12-19T07:10:57;0.10;99.90
14737;DHT22;7459;53.590;10.062;2022-12-19T07:13:23;0.10;99.90
14737;DHT22;7459;53.590;10.062;2022-12-19T07:15:50;0.10;99.90
14737;DHT22;7459;53.590;10.062;2022-12-19T07:18:17;0.10;99.90
14737;DHT22;7459;53.590;10.062;2022-12-19T07:20:43;0.10;99.90
14737;DHT22;7459;53.590;10.062;2022-12-19T07:23:13;0.00;99.90
14737;DHT22;7459;53.590;10.062;2022-12-19T07:25:41;0.00;99.90
14737;DHT22;7459;53.590;10.062;2022-12-19T07:28:07;0.00;99.90
14737;DHT22;7459;53.590;10.062;2022-12-19T07:30:33;0.00;99.90
14737;DHT22;7459;53.590;10.062;2022-12-19T07:32:59;0.00;99.90
14737;DHT22;7459;53.590;10.062;2022-12-19T07:35:25;0.10;99.90
14737;DHT22;7459;53.590;10.062;2022-12-19T07:37:51;0.00;99.90
14737;DHT22;7459;53.590;10.062;2022-12-19T07:40:17;0.00;99.90
14737;DHT22;7459;53.590;10.062;2022-12-19T07:42:43;0.10;99.90
14737;DHT22;7459;53.590;10.062;2022-12-19T07:45:10;0.10;99.90
14737;DHT22;7459;53.590;10.062;2022-12-19T07:47:36;0.10;99.90
14737;DHT22;7459;53.590;10.062;2022-12-19T07:50:02;0.10;99.90
14737;DHT22;7459;53.590;10.062;2022-12-19T07:52:28;0.10;99.90
14737;DHT22;7459;53.590;10.062;2022-12-19T07:54:54;0.10;99.90
14737;DHT22;7459;53.590;10.062;2022-12-19T07:57:20;0.10;99.90
14737;DHT22;7459;53.590;10.062;2022-12-19T07:59:46;0.10;99.90
14737;DHT22;7459;53.590;10.062;2022-12-19T08:02:11;0.10;99.90
14737;DHT22;7459;53.590;10.062;2022-12-19T08:04:37;0.10;99.90
14737;DHT22;7459;53.590;10.062;2022-12-19T08:07:03;0.20;99.90
14737;DHT22;7459;53.590;10.062;2022-12-19T08:09:29;0.20;99.90
14737;DHT22;7459;53.590;10.062;2022-12-19T08:11:55;0.20;99.90
14737;DHT22;7459;53.590;10.062;2022-12-19T08:14:21;0.20;99.90
14737;DHT22;7459;53.590;10.062;2022-12-19T08:16:46;0.30;99.90
14737;DHT22;7459;53.590;10.062;2022-12-19T08:19:12;0.30;99.90
14737;DHT22;7459;53.590;10.062;2022-12-19T08:21:38;0.30;99.90
14737;DHT22;7459;53.590;10.062;2022-12-19T08:24:04;0.30;99.90
14737;DHT22;7459;53.590;10.062;2022-12-19T08:26:30;0.30;99.90
14737;DHT22;7459;53.590;10.062;2022-12-19T08:28:57;0.30;99.90
14737;DHT22;7459;53.590;10.062;2022-12-19T08:31:24;0.30;99.90
14737;DHT22;7459;53.590;10.062;2022-12-19T08:33:51;0.30;99.90
14737;DHT22;7459;53.590;10.062;2022-12-19T08:36:18;0.40;99.90
14737;DHT22;7459;53.590;10.062;2022-12-19T08:38:45;0.40;99.90
14737;DHT22;7459;53.590;10.062;2022-12-19T08:41:12;0.50;99.90
14737;DHT22;7459;53.590;10.062;2022-12-19T08:43:38;0.40;99.90
14737;DHT22;7459;53.590;10.062;2022-12-19T08:46:05;0.50;99.90
14737;DHT22;7459;53.590;10.062;2022-12-19T08:48:32;0.40;99.90
14737;DHT22;7459;53.590;10.062;2022-12-19T08:51:00;0.40;99.90
14737;DHT22;7459;53.590;10.062;2022-12-19T08:53:29;0.40;99.90
14737;DHT22;7459;53.590;10.062;2022-12-19T08:55:57;0.40;99.90
14737;DHT22;7459;53.590;10.062;2022-12-19T08:58:25;0.50;99.90
14737;DHT22;7459;53.590;10.062;2022-12-19T09:00:52;0.40;99.90
14737;DHT22;7459;53.590;10.062;2022-12-19T09:03:19;0.50;99.90
14737;DHT22;7459;53.590;10.062;2022-12-19T09:05:45;0.50;99.90
14737;DHT22;7459;53.590;10.062;2022-12-19T09:08:11;0.50;99.90
14737;DHT22;7459;53.590;10.062;2022-12-19T09:10:37;0.60;99.90
14737;DHT22;7459;53.590;10.062;2022-12-19T09:13:04;0.60;99.90
14737;DHT22;7459;53.590;10.062;2022-12-19T09:15:30;0.60;99.90
14737;DHT22;7459;53.590;10.062;2022-12-19T09:17:55;0.60;99.90
14737;DHT22;7459;53.590;10.062;2022-12-19T09:20:21;0.60;99.90
14737;DHT22;7459;53.590;10.062;2022-12-19T09:22:47;0.60;99.90
14737;DHT22;7459;53.590;10.062;2022-12-19T09:25:13;0.60;99.90
14737;DHT22;7459;53.590;10.062;2022-12-19T09:27:39;0.60;99.90
14737;DHT22;7459;53.590;10.062;2022-12-19T09:30:05;0.60;99.90
14737;DHT22;7459;53.590;10.062;2022-12-19T09:32:31;0.70;99.90
14737;DHT22;7459;53.590;10.062;2022-12-19T09:34:57;0.60;99.90
14737;DHT22;7459;53.590;10.062;2022-12-19T09:37:23;0.60;99.90
14737;DHT22;7459;53.590;10.062;2022-12-19T09:39:48;0.70;99.90
14737;DHT22;7459;53.590;10.062;2022-12-19T09:47:43;0.80;99.90
14737;DHT22;7459;53.590;10.062;2022-12-19T09:50:24;0.80;99.90
14737;DHT22;7459;53.590;10.062;2022-12-19T09:52:59;0.80;99.90
14737;DHT22;7459;53.590;10.062;2022-12-19T09:55:37;0.90;99.90
14737;DHT22;7459;53.590;10.062;2022-12-19T09:58:19;0.90;99.90
14737;DHT22;7459;53.590;10.062;2022-12-19T10:01:03;0.90;99.90
14737;DHT22;7459;53.590;10.062;2022-12-19T10:03:35;0.90;99.90
14737;DHT22;7459;53.590;10.062;2022-12-19T10:06:18;1.00;99.90
14737;DHT22;7459;53.590;10.062;2022-12-19T10:08:46;1.00;99.90
14737;DHT22;7459;53.590;10.062;2022-12-19T10:26:05;1.20;99.90
14737;DHT22;7459;53.590;10.062;2022-12-19T10:32:19;1.20;99.90
14737;DHT22;7459;53.590;10.062;2022-12-19T10:34:48;1.20;99.90
14737;DHT22;7459;53.590;10.062;2022-12-19T10:37:27;1.20;99.90
14737;DHT22;7459;53.590;10.062;2022-12-19T10:39:58;1.30;99.90
14737;DHT22;7459;53.590;10.062;2022-12-19T10:42:47;1.40;99.90
14737;DHT22;7459;53.590;10.062;2022-12-19T10:45:18;1.40;99.90
14737;DHT22;7459;53.590;10.062;2022-12-19T10:47:50;1.40;99.90
14737;DHT22;7459;53.590;10.062;2022-12-19T10:50:23;1.30;99.90
14737;DHT22;7459;53.590;10.062;2022-12-19T10:52:54;1.40;99.90
14737;DHT22;7459;53.590;10.062;2022-12-19T10:55:46;1.40;99.90
14737;DHT22;7459;53.590;10.062;2022-12-19T10:58:19;1.50;99.90
14737;DHT22;7459;53.590;10.062;2022-12-19T11:01:12;1.50;99.90
14737;DHT22;7459;53.590;10.062;2022-12-19T11:09:28;2.00;99.90
14737;DHT22;7459;53.590;10.062;2022-12-19T11:14:35;2.00;99.90
14737;DHT22;7459;53.590;10.062;2022-12-19T11:17:02;2.00;99.90
14737;DHT22;7459;53.590;10.062;2022-12-19T11:19:31;2.00;99.90
14737;DHT22;7459;53.590;10.062;2022-12-19T11:22:03;2.00;99.90
14737;DHT22;7459;53.590;10.062;2022-12-19T11:24:38;2.00;99.90
14737;DHT22;7459;53.590;10.062;2022-12-19T11:27:32;2.00;99.90
14737;DHT22;7459;53.590;10.062;2022-12-19T11:30:00;2.10;99.90
14737;DHT22;7459;53.590;10.062;2022-12-19T11:32:34;2.10;99.90
14737;DHT22;7459;53.590;10.062;2022-12-19T11:35:10;2.20;99.90
14737;DHT22;7459;53.590;10.062;2022-12-19T11:37:55;2.20;99.90
14737;DHT22;7459;53.590;10.062;2022-12-19T11:46:05;2.30;99.90
14737;DHT22;7459;53.590;10.062;2022-12-19T11:48:48;2.40;99.90
14737;DHT22;7459;53.590;10.062;2022-12-19T11:51:23;2.40;99.90
14737;DHT22;7459;53.590;10.062;2022-12-19T11:56:28;2.40;99.90
14737;DHT22;7459;53.590;10.062;2022-12-19T11:58:56;2.40;99.90
14737;DHT22;7459;53.590;10.062;2022-12-19T12:07:30;2.40;99.90
14737;DHT22;7459;53.590;10.062;2022-12-19T12:13:05;2.40;99.90
14737;DHT22;7459;53.590;10.062;2022-12-19T12:18:38;2.40;99.90
14737;DHT22;7459;53.590;10.062;2022-12-19T12:21:26;2.40;99.90
14737;DHT22;7459;53.590;10.062;2022-12-19T12:27:01;2.40;99.90
14737;DHT22;7459;53.590;10.062;2022-12-19T12:35:34;2.40;99.90
14737;DHT22;7459;53.590;10.062;2022-12-19T12:38:23;2.50;99.90
14737;DHT22;7459;53.590;10.062;2022-12-19T12:41:22;2.50;99.90
14737;DHT22;7459;53.590;10.062;2022-12-19T12:44:11;2.50;99.90
14737;DHT22;7459;53.590;10.062;2022-12-19T12:46:48;2.50;99.90
14737;DHT22;7459;53.590;10.062;2022-12-19T12:49:36;2.50;99.90
14737;DHT22;7459;53.590;10.062;2022-12-19T12:52:07;2.50;99.90
14737;DHT22;7459;53.590;10.062;2022-12-19T12:54:40;2.50;99.90
14737;DHT22;7459;53.590;10.062;2022-12-19T12:57:36;2.60;99.90
14737;DHT22;7459;53.590;10.062;2022-12-19T13:03:28;2.60;99.90
14737;DHT22;7459;53.590;10.062;2022-12-19T13:06:05;2.60;99.90
14737;DHT22;7459;53.590;10.062;2022-12-19T13:08:48;2.60;99.90
14737;DHT22;7459;53.590;10.062;2022-12-19T13:22:44;2.70;99.90
14737;DHT22;7459;53.590;10.062;2022-12-19T13:30:26;2.70;99.90
14737;DHT22;7459;53.590;10.062;2022-12-19T13:37:47;2.70;99.90
14737;DHT22;7459;53.590;10.062;2022-12-19T13:43:14;2.70;99.90
14737;DHT22;7459;53.590;10.062;2022-12-19T13:46:26;2.70;99.90
14737;DHT22;7459;53.590;10.062;2022-12-19T13:49:06;2.70;99.90
14737;DHT22;7459;53.590;10.062;2022-12-19T13:51:51;2.70;99.90
14737;DHT22;7459;53.590;10.062;2022-12-19T13:56:56;2.70;99.90
14737;DHT22;7459;53.590;10.062;2022-12-19T13:59:24;2.70;99.90
14737;DHT22;7459;53.590;10.062;2022-12-19T14:01:52;2.80;99.90
14737;DHT22;7459;53.590;10.062;2022-12-19T14:04:29;2.80;99.90
14737;DHT22;7459;53.590;10.062;2022-12-19T14:07:18;2.80;99.90
14737;DHT22;7459;53.590;10.062;2022-12-19T14:09:51;2.90;99.90
14737;DHT22;7459;53.590;10.062;2022-12-19T14:12:27;2.90;99.90
14737;DHT22;7459;53.590;10.062;2022-12-19T14:15:43;2.90;99.90
14737;DHT22;7459;53.590;10.062;2022-12-19T14:18:28;2.90;99.90
14737;DHT22;7459;53.590;10.062;2022-12-19T14:23:42;3.10;99.90
14737;DHT22;7459;53.590;10.062;2022-12-19T14:26:24;3.10;99.90
14737;DHT22;7459;53.590;10.062;2022-12-19T14:29:00;3.20;99.90
14737;DHT22;7459;53.590;10.062;2022-12-19T14:31:35;3.30;99.90
14737;DHT22;7459;53.590;10.062;2022-12-19T14:34:03;3.60;99.90
14737;DHT22;7459;53.590;10.062;2022-12-19T14:36:31;3.40;99.90
14737;DHT22;7459;53.590;10.062;2022-12-19T14:38:58;3.70;99.90
14737;DHT22;7459;53.590;10.062;2022-12-19T14:44:16;3.50;99.90
14737;DHT22;7459;53.590;10.062;2022-12-19T14:47:03;3.60;99.90
14737;DHT22;7459;53.590;10.062;2022-12-19T14:49:33;3.60;99.90
14737;DHT22;7459;53.590;10.062;2022-12-19T14:52:03;3.70;99.90
14737;DHT22;7459;53.590;10.062;2022-12-19T14:54:30;3.80;99.90
14737;DHT22;7459;53.590;10.062;2022-12-19T14:57:01;3.80;99.90
14737;DHT22;7459;53.590;10.062;2022-12-19T14:59:33;3.90;99.90
14737;DHT22;7459;53.590;10.062;2022-12-19T15:04:39;3.90;99.90
14737;DHT22;7459;53.590;10.062;2022-12-19T15:07:18;3.90;99.90
14737;DHT22;7459;53.590;10.062;2022-12-19T15:12:32;4.00;99.90
14737;DHT22;7459;53.590;10.062;2022-12-19T15:15:23;4.00;99.90
14737;DHT22;7459;53.590;10.062;2022-12-19T15:17:53;4.10;99.90
14737;DHT22;7459;53.590;10.062;2022-12-19T15:20:20;4.10;99.90
14737;DHT22;7459;53.590;10.062;2022-12-19T15:22:46;4.10;99.90
14737;DHT22;7459;53.590;10.062;2022-12-19T15:25:16;4.10;99.90
14737;DHT22;7459;53.590;10.062;2022-12-19T15:27:43;4.10;99.90
14737;DHT22;7459;53.590;10.062;2022-12-19T15:30:20;4.10;99.90
14737;DHT22;7459;53.590;10.062;2022-12-19T15:32:46;4.10;99.90
14737;DHT22;7459;53.590;10.062;2022-12-19T15:35:14;4.20;99.90
14737;DHT22;7459;53.590;10.062;2022-12-19T15:37:42;4.10;99.90
14737;DHT22;7459;53.590;10.062;2022-12-19T15:40:13;4.20;99.90
14737;DHT22;7459;53.590;10.062;2022-12-19T15:42:42;4.20;99.90
14737;DHT22;7459;53.590;10.062;2022-12-19T15:45:14;4.30;99.90
14737;DHT22;7459;53.590;10.062;2022-12-19T15:47:42;4.30;99.90
14737;DHT22;7459;53.590;10.062;2022-12-19T15:50:20;4.30;99.90
14737;DHT22;7459;53.590;10.062;2022-12-19T15:52:47;4.30;99.90
14737;DHT22;7459;53.590;10.062;2022-12-19T15:55:18;4.30;99.90
14737;DHT22;7459;53.590;10.062;2022-12-19T15:58:00;4.30;99.90
14737;DHT22;7459;53.590;10.062;2022-12-19T16:00:32;4.30;99.90
14737;DHT22;7459;53.590;10.062;2022-12-19T16:02:59;4.40;99.90
14737;DHT22;7459;53.590;10.062;2022-12-19T16:05:26;4.40;99.90
14737;DHT22;7459;53.590;10.062;2022-12-19T16:07:53;4.50;99.90
14737;DHT22;7459;53.590;10.062;2022-12-19T16:10:19;4.60;99.90
14737;DHT22;7459;53.590;10.062;2022-12-19T16:12:54;4.60;99.90
14737;DHT22;7459;53.590;10.062;2022-12-19T16:15:28;4.60;99.90
14737;DHT22;7459;53.590;10.062;2022-12-19T16:17:56;4.60;99.90
14737;DHT22;7459;53.590;10.062;2022-12-19T16:20:26;4.60;99.90
14737;DHT22;7459;53.590;10.062;2022-12-19T16:22:53;4.50;99.90
14737;DHT22;7459;53.590;10.062;2022-12-19T16:25:21;4.60;99.90
14737;DHT22;7459;53.590;10.062;2022-12-19T16:27:52;4.60;99.90
14737;DHT22;7459;53.590;10.062;2022-12-19T16:30:22;4.60;99.90
14737;DHT22;7459;53.590;10.062;2022-12-19T16:32:50;4.50;99.90
14737;DHT22;7459;53.590;10.062;2022-12-19T16:35:21;4.50;99.90
14737;DHT22;7459;53.590;10.062;2022-12-19T16:37:51;4.50;99.90
14737;DHT22;7459;53.590;10.062;2022-12-19T16:40:22;4.60;99.90
14737;DHT22;7459;53.590;10.062;2022-12-19T16:42:56;4.70;99.90
14737;DHT22;7459;53.590;10.062;2022-12-19T16:45:27;4.80;99.90
14737;DHT22;7459;53.590;10.062;2022-12-19T16:47:52;4.80;99.90
14737;DHT22;7459;53.590;10.062;2022-12-19T16:50:29;4.70;99.90
14737;DHT22;7459;53.590;10.062;2022-12-19T16:52:55;4.80;99.90
14737;DHT22;7459;53.590;10.062;2022-12-19T16:55:23;4.80;99.90
14737;DHT22;7459;53.590;10.062;2022-12-19T16:57:51;4.70;99.90
14737;DHT22;7459;53.590;10.062;2022-12-19T17:00:20;4.80;99.90
14737;DHT22;7459;53.590;10.062;2022-12-19T17:02:52;4.80;99.90
14737;DHT22;7459;53.590;10.062;2022-12-19T17:05:25;4.80;99.90
14737;DHT22;7459;53.590;10.062;2022-12-19T17:07:53;4.80;99.90
14737;DHT22;7459;53.590;10.062;2022-12-19T17:10:21;4.90;99.90
14737;DHT22;7459;53.590;10.062;2022-12-19T17:12:48;4.90;99.90
14737;DHT22;7459;53.590;10.062;2022-12-19T17:15:27;5.00;99.90
14737;DHT22;7459;53.590;10.062;2022-12-19T17:17:57;5.00;99.90
14737;DHT22;7459;53.590;10.062;2022-12-19T17:20:26;5.00;99.90
14737;DHT22;7459;53.590;10.062;2022-12-19T17:22:55;5.10;99.90
14737;DHT22;7459;53.590;10.062;2022-12-19T17:25:23;5.10;99.90
14737;DHT22;7459;53.590;10.062;2022-12-19T17:27:51;5.10;99.90
14737;DHT22;7459;53.590;10.062;2022-12-19T17:30:18;5.10;99.90
14737;DHT22;7459;53.590;10.062;2022-12-19T17:32:49;5.20;99.90
14737;DHT22;7459;53.590;10.062;2022-12-19T17:35:18;5.20;99.90
14737;DHT22;7459;53.590;10.062;2022-12-19T17:37:50;5.20;99.90
14737;DHT22;7459;53.590;10.062;2022-12-19T17:40:20;5.20;99.90
14737;DHT22;7459;53.590;10.062;2022-12-19T17:42:48;5.20;99.90
14737;DHT22;7459;53.590;10.062;2022-12-19T17:45:14;5.30;99.90
14737;DHT22;7459;53.590;10.062;2022-12-19T17:47:41;5.20;99.90
14737;DHT22;7459;53.590;10.062;2022-12-19T17:50:25;5.20;99.90
14737;DHT22;7459;53.590;10.062;2022-12-19T17:52:54;5.20;99.90
14737;DHT22;7459;53.590;10.062;2022-12-19T17:55:28;5.20;99.90
14737;DHT22;7459;53.590;10.062;2022-12-19T17:57:55;5.20;99.90
14737;DHT22;7459;53.590;10.062;2022-12-19T18:00:23;5.10;99.90
14737;DHT22;7459;53.590;10.062;2022-12-19T18:02:52;5.20;99.90
14737;DHT22;7459;53.590;10.062;2022-12-19T18:05:23;5.20;99.90
14737;DHT22;7459;53.590;10.062;2022-12-19T18:07:51;5.30;99.90
14737;DHT22;7459;53.590;10.062;2022-12-19T18:10:21;5.30;99.90
14737;DHT22;7459;53.590;10.062;2022-12-19T18:12:48;5.30;99.90
14737;DHT22;7459;53.590;10.062;2022-12-19T18:15:15;5.30;99.90
14737;DHT22;7459;53.590;10.062;2022-12-19T18:17:42;5.40;99.90
14737;DHT22;7459;53.590;10.062;2022-12-19T18:20:23;5.50;99.90
14737;DHT22;7459;53.590;10.062;2022-12-19T18:22:51;5.50;99.90
14737;DHT22;7459;53.590;10.062;2022-12-19T18:25:23;5.50;99.90